sensor_id;sensor_type;location;lat;lon;timestamp;P1;durP1;ratioP1;P2;durP2;ratioP2
24650;SDS011;12783;48.824;8.662;2024-01-11T00:02:01;37.30;;;13.95;;
24650;SDS011;12783;48.824;8.662;2024-01-11T00:04:28;41.55;;;15.85;;
24650;SDS011;12783;48.824;8.662;2024-01-11T00:06:55;32.40;;;14.75;;
24650;SDS011;12783;48.824;8.662;2024-01-11T00:09:22;31.67;;;14.38;;
24650;SDS011;12783;48.824;8.662;2024-01-11T00:11:49;39.38;;;15.18;;
24650;SDS011;12783;48.824;8.662;2024-01-11T00:14:16;39.30;;;14.35;;
24650;SDS011;12783;48.824;8.662;2024-01-11T00:16:43;38.72;;;15.23;;
24650;SDS011;12783;48.824;8.662;2024-01-11T00:19:10;39.13;;;14.88;;
24650;SDS011;12783;48.824;8.662;2024-01-11T00:21:37;33.70;;;14.05;;
24650;SDS011;12783;48.824;8.662;2024-01-11T00:24:07;33.28;;;14.32;;
24650;SDS011;12783;48.824;8.662;2024-01-11T00:26:34;35.63;;;14.27;;
24650;SDS011;12783;48.824;8.662;2024-01-11T00:29:02;33.10;;;14.10;;
24650;SDS011;12783;48.824;8.662;2024-01-11T00:31:29;35.13;;;14.40;;
24650;SDS011;12783;48.824;8.662;2024-01-11T00:33:56;40.85;;;14.90;;
24650;SDS011;12783;48.824;8.662;2024-01-11T00:36:23;35.17;;;13.93;;
24650;SDS011;12783;48.824;8.662;2024-01-11T00:38:50;40.85;;;14.93;;
24650;SDS011;12783;48.824;8.662;2024-01-11T00:41:17;30.10;;;13.40;;
24650;SDS011;12783;48.824;8.662;2024-01-11T00:43:44;34.75;;;14.25;;
24650;SDS011;12783;48.824;8.662;2024-01-11T00:46:11;39.08;;;14.35;;
24650;SDS011;12783;48.824;8.662;2024-01-11T00:48:38;32.67;;;13.52;;
24650;SDS011;12783;48.824;8.662;2024-01-11T00:51:05;33.90;;;12.88;;
24650;SDS011;12783;48.824;8.662;2024-01-11T00:53:32;33.88;;;14.23;;
24650;SDS011;12783;48.824;8.662;2024-01-11T00:56:00;41.67;;;15.70;;
24650;SDS011;12783;48.824;8.662;2024-01-11T00:58:27;32.92;;;13.50;;
24650;SDS011;12783;48.824;8.662;2024-01-11T01:00:54;30.95;;;14.15;;
24650;SDS011;12783;48.824;8.662;2024-01-11T01:03:21;36.20;;;15.15;;
24650;SDS011;12783;48.824;8.662;2024-01-11T01:05:48;40.67;;;14.00;;
24650;SDS011;12783;48.824;8.662;2024-01-11T01:08:15;35.13;;;14.85;;
24650;SDS011;12783;48.824;8.662;2024-01-11T01:10:42;41.60;;;15.50;;
24650;SDS011;12783;48.824;8.662;2024-01-11T01:13:09;34.30;;;13.95;;
24650;SDS011;12783;48.824;8.662;2024-01-11T01:15:36;35.70;;;14.73;;
24650;SDS011;12783;48.824;8.662;2024-01-11T01:18:03;35.00;;;14.73;;
24650;SDS011;12783;48.824;8.662;2024-01-11T01:20:31;37.25;;;14.43;;
24650;SDS011;12783;48.824;8.662;2024-01-11T01:22:58;31.75;;;13.27;;
24650;SDS011;12783;48.824;8.662;2024-01-11T01:25:25;36.60;;;14.55;;
24650;SDS011;12783;48.824;8.662;2024-01-11T01:27:52;38.10;;;15.05;;
24650;SDS011;12783;48.824;8.662;2024-01-11T01:30:19;35.03;;;14.57;;
24650;SDS011;12783;48.824;8.662;2024-01-11T01:32:46;37.90;;;15.45;;
24650;SDS011;12783;48.824;8.662;2024-01-11T01:35:14;32.97;;;14.35;;
24650;SDS011;12783;48.824;8.662;2024-01-11T01:37:41;36.03;;;14.15;;
24650;SDS011;12783;48.824;8.662;2024-01-11T01:40:09;31.55;;;13.63;;
24650;SDS011;12783;48.824;8.662;2024-01-11T01:42:44;41.03;;;14.95;;
24650;SDS011;12783;48.824;8.662;2024-01-11T01:45:12;38.42;;;14.57;;
24650;SDS011;12783;48.824;8.662;2024-01-11T01:47:40;41.03;;;15.18;;
24650;SDS011;12783;48.824;8.662;2024-01-11T01:50:10;35.30;;;15.07;;
24650;SDS011;12783;48.824;8.662;2024-01-11T01:52:38;38.40;;;15.98;;
24650;SDS011;12783;48.824;8.662;2024-01-11T01:55:07;32.58;;;13.95;;
24650;SDS011;12783;48.824;8.662;2024-01-11T01:57:38;36.30;;;15.35;;
24650;SDS011;12783;48.824;8.662;2024-01-11T02:00:08;36.00;;;15.43;;
24650;SDS011;12783;48.824;8.662;2024-01-11T02:02:38;38.35;;;15.52;;
24650;SDS011;12783;48.824;8.662;2024-01-11T02:05:08;47.33;;;16.33;;
24650;SDS011;12783;48.824;8.662;2024-01-11T02:07:38;46.42;;;17.38;;
24650;SDS011;12783;48.824;8.662;2024-01-11T02:10:06;40.85;;;16.05;;
24650;SDS011;12783;48.824;8.662;2024-01-11T02:12:35;40.53;;;15.18;;
24650;SDS011;12783;48.824;8.662;2024-01-11T02:15:05;39.10;;;14.55;;
24650;SDS011;12783;48.824;8.662;2024-01-11T02:17:32;41.70;;;15.23;;
24650;SDS011;12783;48.824;8.662;2024-01-11T02:20:00;37.03;;;15.07;;
24650;SDS011;12783;48.824;8.662;2024-01-11T02:22:36;39.38;;;14.80;;
24650;SDS011;12783;48.824;8.662;2024-01-11T02:25:08;34.03;;;14.20;;
24650;SDS011;12783;48.824;8.662;2024-01-11T02:27:45;43.72;;;17.10;;
24650;SDS011;12783;48.824;8.662;2024-01-11T02:30:13;38.95;;;14.75;;
24650;SDS011;12783;48.824;8.662;2024-01-11T02:32:41;41.90;;;15.88;;
24650;SDS011;12783;48.824;8.662;2024-01-11T02:35:13;38.08;;;15.13;;
24650;SDS011;12783;48.824;8.662;2024-01-11T02:37:42;37.38;;;15.93;;
24650;SDS011;12783;48.824;8.662;2024-01-11T02:40:10;52.13;;;17.23;;
24650;SDS011;12783;48.824;8.662;2024-01-11T02:42:40;39.30;;;16.10;;
24650;SDS011;12783;48.824;8.662;2024-01-11T02:45:07;38.63;;;15.57;;
24650;SDS011;12783;48.824;8.662;2024-01-11T02:47:36;34.95;;;14.98;;
24650;SDS011;12783;48.824;8.662;2024-01-11T02:50:03;39.95;;;16.55;;
24650;SDS011;12783;48.824;8.662;2024-01-11T02:52:34;38.70;;;15.95;;
24650;SDS011;12783;48.824;8.662;2024-01-11T02:55:01;41.80;;;16.17;;
24650;SDS011;12783;48.824;8.662;2024-01-11T02:57:28;39.65;;;15.32;;
24650;SDS011;12783;48.824;8.662;2024-01-11T02:59:55;38.47;;;15.93;;
24650;SDS011;12783;48.824;8.662;2024-01-11T03:02:22;41.47;;;17.30;;
24650;SDS011;12783;48.824;8.662;2024-01-11T03:04:50;41.03;;;16.35;;
24650;SDS011;12783;48.824;8.662;2024-01-11T03:07:17;41.22;;;16.92;;
24650;SDS011;12783;48.824;8.662;2024-01-11T03:09:43;42.95;;;16.80;;
24650;SDS011;12783;48.824;8.662;2024-01-11T03:12:10;46.80;;;16.77;;
24650;SDS011;12783;48.824;8.662;2024-01-11T03:14:37;48.05;;;18.48;;
24650;SDS011;12783;48.824;8.662;2024-01-11T03:17:04;45.28;;;18.20;;
24650;SDS011;12783;48.824;8.662;2024-01-11T03:19:32;49.28;;;18.17;;
24650;SDS011;12783;48.824;8.662;2024-01-11T03:21:59;44.40;;;17.35;;
24650;SDS011;12783;48.824;8.662;2024-01-11T03:24:29;54.40;;;20.85;;
24650;SDS011;12783;48.824;8.662;2024-01-11T03:26:56;55.22;;;19.02;;
24650;SDS011;12783;48.824;8.662;2024-01-11T03:29:23;43.60;;;17.35;;
24650;SDS011;12783;48.824;8.662;2024-01-11T03:31:50;52.00;;;18.67;;
24650;SDS011;12783;48.824;8.662;2024-01-11T03:34:17;49.53;;;19.00;;
24650;SDS011;12783;48.824;8.662;2024-01-11T03:36:44;46.13;;;19.13;;
24650;SDS011;12783;48.824;8.662;2024-01-11T03:39:11;45.60;;;18.48;;
24650;SDS011;12783;48.824;8.662;2024-01-11T03:41:42;55.50;;;18.33;;
24650;SDS011;12783;48.824;8.662;2024-01-11T03:44:11;44.83;;;18.45;;
24650;SDS011;12783;48.824;8.662;2024-01-11T03:46:38;43.75;;;17.80;;
24650;SDS011;12783;48.824;8.662;2024-01-11T03:49:05;49.28;;;18.27;;
24650;SDS011;12783;48.824;8.662;2024-01-11T03:51:34;44.72;;;18.48;;
24650;SDS011;12783;48.824;8.662;2024-01-11T03:54:02;49.40;;;18.98;;
24650;SDS011;12783;48.824;8.662;2024-01-11T03:56:29;55.08;;;18.27;;
24650;SDS011;12783;48.824;8.662;2024-01-11T03:58:56;54.97;;;20.00;;
24650;SDS011;12783;48.824;8.662;2024-01-11T04:01:23;54.42;;;19.10;;
24650;SDS011;12783;48.824;8.662;2024-01-11T04:03:51;50.90;;;19.00;;
24650;SDS011;12783;48.824;8.662;2024-01-11T04:06:21;50.38;;;18.52;;
24650;SDS011;12783;48.824;8.662;2024-01-11T04:08:50;50.40;;;20.23;;
24650;SDS011;12783;48.824;8.662;2024-01-11T04:11:17;51.45;;;18.10;;
24650;SDS011;12783;48.824;8.662;2024-01-11T04:13:44;50.65;;;19.35;;
24650;SDS011;12783;48.824;8.662;2024-01-11T04:16:12;49.20;;;18.95;;
24650;SDS011;12783;48.824;8.662;2024-01-11T04:18:38;51.95;;;19.05;;
24650;SDS011;12783;48.824;8.662;2024-01-11T04:21:05;50.55;;;19.00;;
24650;SDS011;12783;48.824;8.662;2024-01-11T04:23:32;47.15;;;18.80;;
24650;SDS011;12783;48.824;8.662;2024-01-11T04:25:59;54.92;;;19.15;;
24650;SDS011;12783;48.824;8.662;2024-01-11T04:28:26;52.47;;;20.70;;
24650;SDS011;12783;48.824;8.662;2024-01-11T04:30:53;53.10;;;20.20;;
24650;SDS011;12783;48.824;8.662;2024-01-11T04:33:20;52.42;;;20.40;;
24650;SDS011;12783;48.824;8.662;2024-01-11T04:35:47;54.00;;;20.55;;
24650;SDS011;12783;48.824;8.662;2024-01-11T04:38:14;48.95;;;19.08;;
24650;SDS011;12783;48.824;8.662;2024-01-11T04:40:41;52.65;;;21.13;;
24650;SDS011;12783;48.824;8.662;2024-01-11T04:43:08;62.08;;;19.88;;
24650;SDS011;12783;48.824;8.662;2024-01-11T04:45:35;50.75;;;18.75;;
24650;SDS011;12783;48.824;8.662;2024-01-11T04:48:02;51.22;;;19.60;;
24650;SDS011;12783;48.824;8.662;2024-01-11T04:50:30;57.38;;;20.60;;
24650;SDS011;12783;48.824;8.662;2024-01-11T04:52:57;48.58;;;18.98;;
24650;SDS011;12783;48.824;8.662;2024-01-11T04:55:24;60.28;;;20.75;;
24650;SDS011;12783;48.824;8.662;2024-01-11T04:57:51;57.65;;;20.67;;
24650;SDS011;12783;48.824;8.662;2024-01-11T05:00:19;52.78;;;19.05;;
24650;SDS011;12783;48.824;8.662;2024-01-11T05:02:46;51.42;;;21.13;;
24650;SDS011;12783;48.824;8.662;2024-01-11T05:05:13;53.28;;;19.55;;
24650;SDS011;12783;48.824;8.662;2024-01-11T05:07:41;51.53;;;19.67;;
24650;SDS011;12783;48.824;8.662;2024-01-11T05:10:08;59.45;;;19.77;;
24650;SDS011;12783;48.824;8.662;2024-01-11T05:12:35;65.82;;;21.02;;
24650;SDS011;12783;48.824;8.662;2024-01-11T05:15:03;49.60;;;18.92;;
24650;SDS011;12783;48.824;8.662;2024-01-11T05:17:34;49.88;;;19.35;;
24650;SDS011;12783;48.824;8.662;2024-01-11T05:20:01;58.22;;;19.70;;
24650;SDS011;12783;48.824;8.662;2024-01-11T05:22:28;57.35;;;20.25;;
24650;SDS011;12783;48.824;8.662;2024-01-11T05:24:55;56.92;;;20.98;;
24650;SDS011;12783;48.824;8.662;2024-01-11T05:27:22;60.42;;;20.45;;
24650;SDS011;12783;48.824;8.662;2024-01-11T05:29:49;63.10;;;20.23;;
24650;SDS011;12783;48.824;8.662;2024-01-11T05:32:16;50.15;;;18.60;;
24650;SDS011;12783;48.824;8.662;2024-01-11T05:34:43;57.63;;;18.92;;
24650;SDS011;12783;48.824;8.662;2024-01-11T05:37:10;56.55;;;19.23;;
24650;SDS011;12783;48.824;8.662;2024-01-11T05:39:37;53.50;;;19.92;;
24650;SDS011;12783;48.824;8.662;2024-01-11T05:42:04;50.42;;;19.70;;
24650;SDS011;12783;48.824;8.662;2024-01-11T05:44:32;49.50;;;19.08;;
24650;SDS011;12783;48.824;8.662;2024-01-11T05:46:59;49.25;;;18.83;;
24650;SDS011;12783;48.824;8.662;2024-01-11T05:49:26;50.30;;;18.60;;
24650;SDS011;12783;48.824;8.662;2024-01-11T05:51:53;52.50;;;19.52;;
24650;SDS011;12783;48.824;8.662;2024-01-11T05:54:20;49.22;;;18.50;;
24650;SDS011;12783;48.824;8.662;2024-01-11T05:56:47;50.33;;;17.05;;
24650;SDS011;12783;48.824;8.662;2024-01-11T05:59:13;54.15;;;18.70;;
24650;SDS011;12783;48.824;8.662;2024-01-11T06:01:41;51.65;;;19.45;;
24650;SDS011;12783;48.824;8.662;2024-01-11T06:04:12;58.30;;;20.85;;
24650;SDS011;12783;48.824;8.662;2024-01-11T06:06:40;53.58;;;20.70;;
24650;SDS011;12783;48.824;8.662;2024-01-11T06:09:07;51.13;;;18.88;;
24650;SDS011;12783;48.824;8.662;2024-01-11T06:11:34;47.10;;;18.40;;
24650;SDS011;12783;48.824;8.662;2024-01-11T06:14:01;51.38;;;18.45;;
24650;SDS011;12783;48.824;8.662;2024-01-11T06:16:29;40.88;;;17.00;;
24650;SDS011;12783;48.824;8.662;2024-01-11T06:18:56;50.08;;;16.77;;
24650;SDS011;12783;48.824;8.662;2024-01-11T06:21:23;41.72;;;16.27;;
24650;SDS011;12783;48.824;8.662;2024-01-11T06:23:50;43.58;;;16.00;;
24650;SDS011;12783;48.824;8.662;2024-01-11T06:26:18;48.22;;;17.90;;
24650;SDS011;12783;48.824;8.662;2024-01-11T06:28:45;41.88;;;16.17;;
24650;SDS011;12783;48.824;8.662;2024-01-11T06:31:11;44.10;;;17.60;;
24650;SDS011;12783;48.824;8.662;2024-01-11T06:33:38;37.80;;;15.85;;
24650;SDS011;12783;48.824;8.662;2024-01-11T06:36:06;49.47;;;17.50;;
24650;SDS011;12783;48.824;8.662;2024-01-11T06:38:36;45.15;;;16.73;;
24650;SDS011;12783;48.824;8.662;2024-01-11T06:41:03;39.53;;;16.02;;
24650;SDS011;12783;48.824;8.662;2024-01-11T06:43:30;43.95;;;17.08;;
24650;SDS011;12783;48.824;8.662;2024-01-11T06:46:02;45.55;;;16.30;;
24650;SDS011;12783;48.824;8.662;2024-01-11T06:48:32;50.63;;;18.25;;
24650;SDS011;12783;48.824;8.662;2024-01-11T06:50:59;47.08;;;17.95;;
24650;SDS011;12783;48.824;8.662;2024-01-11T06:53:28;44.83;;;17.77;;
24650;SDS011;12783;48.824;8.662;2024-01-11T06:55:55;55.03;;;18.23;;
24650;SDS011;12783;48.824;8.662;2024-01-11T06:58:22;50.53;;;18.33;;
24650;SDS011;12783;48.824;8.662;2024-01-11T07:00:49;41.33;;;17.15;;
24650;SDS011;12783;48.824;8.662;2024-01-11T07:03:17;48.88;;;18.65;;
24650;SDS011;12783;48.824;8.662;2024-01-11T07:05:44;45.50;;;17.13;;
24650;SDS011;12783;48.824;8.662;2024-01-11T07:08:11;45.58;;;18.02;;
24650;SDS011;12783;48.824;8.662;2024-01-11T07:10:38;50.72;;;18.65;;
24650;SDS011;12783;48.824;8.662;2024-01-11T07:13:05;50.60;;;18.55;;
24650;SDS011;12783;48.824;8.662;2024-01-11T07:15:33;44.83;;;16.77;;
24650;SDS011;12783;48.824;8.662;2024-01-11T07:18:00;49.42;;;18.13;;
24650;SDS011;12783;48.824;8.662;2024-01-11T07:20:27;42.65;;;17.05;;
24650;SDS011;12783;48.824;8.662;2024-01-11T07:22:54;48.22;;;18.90;;
24650;SDS011;12783;48.824;8.662;2024-01-11T07:25:21;50.35;;;18.98;;
24650;SDS011;12783;48.824;8.662;2024-01-11T07:27:48;40.40;;;17.15;;
24650;SDS011;12783;48.824;8.662;2024-01-11T07:30:15;47.67;;;17.38;;
24650;SDS011;12783;48.824;8.662;2024-01-11T07:32:42;41.95;;;16.20;;
24650;SDS011;12783;48.824;8.662;2024-01-11T07:35:09;44.20;;;16.20;;
24650;SDS011;12783;48.824;8.662;2024-01-11T07:37:41;38.90;;;16.10;;
24650;SDS011;12783;48.824;8.662;2024-01-11T07:40:08;37.95;;;17.67;;
24650;SDS011;12783;48.824;8.662;2024-01-11T07:42:40;28.33;;;12.80;;
24650;SDS011;12783;48.824;8.662;2024-01-11T07:45:09;41.58;;;14.23;;
24650;SDS011;12783;48.824;8.662;2024-01-11T07:47:36;34.65;;;13.52;;
24650;SDS011;12783;48.824;8.662;2024-01-11T07:50:04;36.03;;;14.40;;
24650;SDS011;12783;48.824;8.662;2024-01-11T07:52:39;41.53;;;14.23;;
24650;SDS011;12783;48.824;8.662;2024-01-11T07:55:09;37.75;;;13.70;;
24650;SDS011;12783;48.824;8.662;2024-01-11T07:57:39;34.45;;;14.45;;
24650;SDS011;12783;48.824;8.662;2024-01-11T08:00:06;35.08;;;13.52;;
24650;SDS011;12783;48.824;8.662;2024-01-11T08:02:35;33.03;;;13.70;;
24650;SDS011;12783;48.824;8.662;2024-01-11T08:05:02;34.63;;;14.32;;
24650;SDS011;12783;48.824;8.662;2024-01-11T08:07:29;40.33;;;15.52;;
24650;SDS011;12783;48.824;8.662;2024-01-11T08:09:56;39.35;;;15.40;;
24650;SDS011;12783;48.824;8.662;2024-01-11T08:12:23;40.40;;;16.88;;
24650;SDS011;12783;48.824;8.662;2024-01-11T08:14:51;51.80;;;18.50;;
24650;SDS011;12783;48.824;8.662;2024-01-11T08:17:18;44.85;;;17.65;;
24650;SDS011;12783;48.824;8.662;2024-01-11T08:19:45;42.83;;;17.52;;
24650;SDS011;12783;48.824;8.662;2024-01-11T08:22:12;45.22;;;16.48;;
24650;SDS011;12783;48.824;8.662;2024-01-11T08:24:39;46.17;;;17.80;;
24650;SDS011;12783;48.824;8.662;2024-01-11T08:27:06;43.97;;;17.42;;
24650;SDS011;12783;48.824;8.662;2024-01-11T08:29:33;50.05;;;19.23;;
24650;SDS011;12783;48.824;8.662;2024-01-11T08:32:01;55.83;;;20.52;;
24650;SDS011;12783;48.824;8.662;2024-01-11T08:34:49;48.05;;;19.63;;
24650;SDS011;12783;48.824;8.662;2024-01-11T08:37:16;50.70;;;19.85;;
24650;SDS011;12783;48.824;8.662;2024-01-11T08:39:43;53.85;;;18.35;;
24650;SDS011;12783;48.824;8.662;2024-01-11T08:42:12;54.15;;;19.73;;
24650;SDS011;12783;48.824;8.662;2024-01-11T08:44:42;48.83;;;18.95;;
24650;SDS011;12783;48.824;8.662;2024-01-11T08:47:09;58.10;;;20.30;;
24650;SDS011;12783;48.824;8.662;2024-01-11T08:49:38;49.67;;;20.63;;
24650;SDS011;12783;48.824;8.662;2024-01-11T08:52:05;50.17;;;19.23;;
24650;SDS011;12783;48.824;8.662;2024-01-11T08:54:34;44.00;;;18.05;;
24650;SDS011;12783;48.824;8.662;2024-01-11T08:57:01;51.83;;;19.00;;
24650;SDS011;12783;48.824;8.662;2024-01-11T08:59:28;46.65;;;17.58;;
24650;SDS011;12783;48.824;8.662;2024-01-11T09:01:55;44.70;;;19.35;;
24650;SDS011;12783;48.824;8.662;2024-01-11T09:04:39;42.92;;;17.52;;
24650;SDS011;12783;48.824;8.662;2024-01-11T09:07:06;40.83;;;16.98;;
24650;SDS011;12783;48.824;8.662;2024-01-11T09:09:33;42.13;;;16.95;;
24650;SDS011;12783;48.824;8.662;2024-01-11T09:12:12;39.97;;;17.00;;
24650;SDS011;12783;48.824;8.662;2024-01-11T09:14:39;41.35;;;16.15;;
24650;SDS011;12783;48.824;8.662;2024-01-11T09:17:06;47.75;;;17.65;;
24650;SDS011;12783;48.824;8.662;2024-01-11T09:19:34;51.53;;;19.13;;
24650;SDS011;12783;48.824;8.662;2024-01-11T09:22:03;46.97;;;17.80;;
24650;SDS011;12783;48.824;8.662;2024-01-11T09:24:30;47.75;;;17.88;;
24650;SDS011;12783;48.824;8.662;2024-01-11T09:27:03;40.67;;;17.10;;
24650;SDS011;12783;48.824;8.662;2024-01-11T09:29:30;43.65;;;18.35;;
24650;SDS011;12783;48.824;8.662;2024-01-11T09:31:58;43.33;;;18.08;;
24650;SDS011;12783;48.824;8.662;2024-01-11T09:34:26;46.67;;;18.83;;
24650;SDS011;12783;48.824;8.662;2024-01-11T09:36:53;50.08;;;18.45;;
24650;SDS011;12783;48.824;8.662;2024-01-11T09:39:25;42.38;;;18.60;;
24650;SDS011;12783;48.824;8.662;2024-01-11T09:41:57;41.50;;;17.98;;
24650;SDS011;12783;48.824;8.662;2024-01-11T09:44:31;41.83;;;17.80;;
24650;SDS011;12783;48.824;8.662;2024-01-11T09:47:00;45.47;;;18.02;;
24650;SDS011;12783;48.824;8.662;2024-01-11T09:49:30;39.90;;;16.92;;
24650;SDS011;12783;48.824;8.662;2024-01-11T09:51:58;46.92;;;18.27;;
24650;SDS011;12783;48.824;8.662;2024-01-11T09:54:27;51.47;;;18.42;;
24650;SDS011;12783;48.824;8.662;2024-01-11T09:56:54;44.50;;;17.80;;
24650;SDS011;12783;48.824;8.662;2024-01-11T09:59:28;39.40;;;15.73;;
24650;SDS011;12783;48.824;8.662;2024-01-11T10:01:56;46.40;;;18.02;;
24650;SDS011;12783;48.824;8.662;2024-01-11T10:04:24;36.20;;;15.90;;
24650;SDS011;12783;48.824;8.662;2024-01-11T10:06:52;40.90;;;16.77;;
24650;SDS011;12783;48.824;8.662;2024-01-11T10:09:21;43.58;;;17.45;;
24650;SDS011;12783;48.824;8.662;2024-01-11T10:11:49;35.05;;;16.00;;
24650;SDS011;12783;48.824;8.662;2024-01-11T10:14:17;46.05;;;18.27;;
24650;SDS011;12783;48.824;8.662;2024-01-11T10:16:44;42.28;;;16.48;;
24650;SDS011;12783;48.824;8.662;2024-01-11T10:19:12;41.65;;;16.50;;
24650;SDS011;12783;48.824;8.662;2024-01-11T10:21:42;45.10;;;18.05;;
24650;SDS011;12783;48.824;8.662;2024-01-11T10:24:09;51.28;;;18.27;;
24650;SDS011;12783;48.824;8.662;2024-01-11T10:26:36;40.45;;;16.92;;
24650;SDS011;12783;48.824;8.662;2024-01-11T10:29:03;36.88;;;15.52;;
24650;SDS011;12783;48.824;8.662;2024-01-11T10:31:39;44.47;;;18.35;;
24650;SDS011;12783;48.824;8.662;2024-01-11T10:34:06;44.03;;;18.58;;
24650;SDS011;12783;48.824;8.662;2024-01-11T10:36:33;48.75;;;18.63;;
24650;SDS011;12783;48.824;8.662;2024-01-11T10:39:01;44.67;;;18.70;;
24650;SDS011;12783;48.824;8.662;2024-01-11T10:41:38;40.53;;;16.75;;
24650;SDS011;12783;48.824;8.662;2024-01-11T10:44:12;43.00;;;17.90;;
24650;SDS011;12783;48.824;8.662;2024-01-11T10:46:48;38.70;;;16.13;;
24650;SDS011;12783;48.824;8.662;2024-01-11T10:49:17;45.67;;;18.27;;
24650;SDS011;12783;48.824;8.662;2024-01-11T10:51:49;45.50;;;17.65;;
24650;SDS011;12783;48.824;8.662;2024-01-11T10:54:24;45.85;;;16.42;;
24650;SDS011;12783;48.824;8.662;2024-01-11T10:56:52;36.28;;;15.38;;
24650;SDS011;12783;48.824;8.662;2024-01-11T10:59:21;45.45;;;17.15;;
24650;SDS011;12783;48.824;8.662;2024-01-11T11:01:57;40.78;;;17.08;;
24650;SDS011;12783;48.824;8.662;2024-01-11T11:04:30;36.33;;;16.20;;
24650;SDS011;12783;48.824;8.662;2024-01-11T11:06:59;46.55;;;16.70;;
24650;SDS011;12783;48.824;8.662;2024-01-11T11:09:28;39.10;;;16.23;;
24650;SDS011;12783;48.824;8.662;2024-01-11T11:11:59;35.25;;;15.05;;
24650;SDS011;12783;48.824;8.662;2024-01-11T11:14:27;41.05;;;16.20;;
24650;SDS011;12783;48.824;8.662;2024-01-11T11:16:54;35.65;;;15.20;;
24650;SDS011;12783;48.824;8.662;2024-01-11T11:19:21;36.47;;;14.27;;
24650;SDS011;12783;48.824;8.662;2024-01-11T11:21:49;42.70;;;15.25;;
24650;SDS011;12783;48.824;8.662;2024-01-11T11:24:17;33.50;;;13.75;;
24650;SDS011;12783;48.824;8.662;2024-01-11T11:26:45;33.88;;;13.50;;
24650;SDS011;12783;48.824;8.662;2024-01-11T11:29:12;36.92;;;14.77;;
24650;SDS011;12783;48.824;8.662;2024-01-11T11:31:42;32.65;;;13.23;;
24650;SDS011;12783;48.824;8.662;2024-01-11T11:34:20;29.80;;;13.07;;
24650;SDS011;12783;48.824;8.662;2024-01-11T11:37:06;28.98;;;13.07;;
24650;SDS011;12783;48.824;8.662;2024-01-11T11:39:33;34.13;;;13.55;;
24650;SDS011;12783;48.824;8.662;2024-01-11T11:42:00;28.58;;;12.98;;
24650;SDS011;12783;48.824;8.662;2024-01-11T11:44:29;32.50;;;12.85;;
24650;SDS011;12783;48.824;8.662;2024-01-11T11:47:17;32.78;;;13.30;;
24650;SDS011;12783;48.824;8.662;2024-01-11T11:50:08;37.13;;;13.23;;
24650;SDS011;12783;48.824;8.662;2024-01-11T11:52:38;38.80;;;15.60;;
24650;SDS011;12783;48.824;8.662;2024-01-11T11:55:06;33.67;;;13.07;;
24650;SDS011;12783;48.824;8.662;2024-01-11T11:57:35;40.92;;;14.52;;
24650;SDS011;12783;48.824;8.662;2024-01-11T12:00:03;32.25;;;13.02;;
24650;SDS011;12783;48.824;8.662;2024-01-11T12:02:33;38.90;;;15.05;;
24650;SDS011;12783;48.824;8.662;2024-01-11T12:05:02;29.27;;;12.98;;
24650;SDS011;12783;48.824;8.662;2024-01-11T12:07:31;28.08;;;11.95;;
24650;SDS011;12783;48.824;8.662;2024-01-11T12:09:58;30.92;;;13.68;;
24650;SDS011;12783;48.824;8.662;2024-01-11T12:12:25;37.15;;;13.10;;
24650;SDS011;12783;48.824;8.662;2024-01-11T12:14:53;27.42;;;13.07;;
24650;SDS011;12783;48.824;8.662;2024-01-11T12:17:20;33.28;;;13.00;;
24650;SDS011;12783;48.824;8.662;2024-01-11T12:19:47;27.80;;;13.10;;
24650;SDS011;12783;48.824;8.662;2024-01-11T12:22:14;28.40;;;12.32;;
24650;SDS011;12783;48.824;8.662;2024-01-11T12:24:43;26.95;;;12.02;;
24650;SDS011;12783;48.824;8.662;2024-01-11T12:27:10;30.08;;;12.23;;
24650;SDS011;12783;48.824;8.662;2024-01-11T12:29:38;29.25;;;12.52;;
24650;SDS011;12783;48.824;8.662;2024-01-11T12:32:20;35.10;;;13.73;;
24650;SDS011;12783;48.824;8.662;2024-01-11T12:34:48;25.77;;;12.43;;
24650;SDS011;12783;48.824;8.662;2024-01-11T12:37:15;30.60;;;13.18;;
24650;SDS011;12783;48.824;8.662;2024-01-11T12:39:42;31.38;;;13.00;;
24650;SDS011;12783;48.824;8.662;2024-01-11T12:42:09;33.95;;;14.18;;
24650;SDS011;12783;48.824;8.662;2024-01-11T12:44:37;37.92;;;14.90;;
24650;SDS011;12783;48.824;8.662;2024-01-11T12:47:07;29.92;;;14.07;;
24650;SDS011;12783;48.824;8.662;2024-01-11T12:49:34;33.55;;;14.82;;
24650;SDS011;12783;48.824;8.662;2024-01-11T12:52:01;43.17;;;15.05;;
24650;SDS011;12783;48.824;8.662;2024-01-11T12:54:28;31.35;;;14.07;;
24650;SDS011;12783;48.824;8.662;2024-01-11T12:56:59;34.63;;;14.15;;
24650;SDS011;12783;48.824;8.662;2024-01-11T12:59:28;35.95;;;16.38;;
24650;SDS011;12783;48.824;8.662;2024-01-11T13:01:55;34.67;;;14.57;;
24650;SDS011;12783;48.824;8.662;2024-01-11T13:04:23;38.88;;;15.65;;
24650;SDS011;12783;48.824;8.662;2024-01-11T13:06:49;37.38;;;15.23;;
24650;SDS011;12783;48.824;8.662;2024-01-11T13:09:16;40.58;;;15.90;;
24650;SDS011;12783;48.824;8.662;2024-01-11T13:11:44;38.00;;;14.68;;
24650;SDS011;12783;48.824;8.662;2024-01-11T13:14:11;33.88;;;14.52;;
24650;SDS011;12783;48.824;8.662;2024-01-11T13:16:46;30.77;;;14.75;;
24650;SDS011;12783;48.824;8.662;2024-01-11T13:19:14;36.72;;;14.93;;
24650;SDS011;12783;48.824;8.662;2024-01-11T13:21:52;33.85;;;14.05;;
24650;SDS011;12783;48.824;8.662;2024-01-11T13:24:19;32.13;;;13.27;;
24650;SDS011;12783;48.824;8.662;2024-01-11T13:26:46;38.90;;;14.60;;
24650;SDS011;12783;48.824;8.662;2024-01-11T13:29:13;30.27;;;13.40;;
24650;SDS011;12783;48.824;8.662;2024-01-11T13:31:40;36.58;;;14.43;;
24650;SDS011;12783;48.824;8.662;2024-01-11T13:34:07;36.72;;;16.23;;
24650;SDS011;12783;48.824;8.662;2024-01-11T13:36:34;34.95;;;16.83;;
24650;SDS011;12783;48.824;8.662;2024-01-11T13:39:01;44.28;;;19.65;;
24650;SDS011;12783;48.824;8.662;2024-01-11T13:41:29;45.72;;;20.60;;
24650;SDS011;12783;48.824;8.662;2024-01-11T13:43:56;49.42;;;21.27;;
24650;SDS011;12783;48.824;8.662;2024-01-11T13:46:22;52.28;;;21.25;;
24650;SDS011;12783;48.824;8.662;2024-01-11T13:48:49;51.00;;;20.75;;
24650;SDS011;12783;48.824;8.662;2024-01-11T13:51:16;48.58;;;20.70;;
24650;SDS011;12783;48.824;8.662;2024-01-11T13:53:43;67.63;;;22.42;;
24650;SDS011;12783;48.824;8.662;2024-01-11T13:56:10;49.50;;;21.33;;
24650;SDS011;12783;48.824;8.662;2024-01-11T13:58:37;53.50;;;22.83;;
24650;SDS011;12783;48.824;8.662;2024-01-11T14:01:05;54.97;;;21.77;;
24650;SDS011;12783;48.824;8.662;2024-01-11T14:03:33;55.10;;;22.80;;
24650;SDS011;12783;48.824;8.662;2024-01-11T14:06:00;49.35;;;20.98;;
24650;SDS011;12783;48.824;8.662;2024-01-11T14:08:29;48.80;;;20.77;;
24650;SDS011;12783;48.824;8.662;2024-01-11T14:10:56;51.65;;;21.58;;
24650;SDS011;12783;48.824;8.662;2024-01-11T14:13:23;45.95;;;19.52;;
24650;SDS011;12783;48.824;8.662;2024-01-11T14:15:49;54.40;;;20.58;;
24650;SDS011;12783;48.824;8.662;2024-01-11T14:18:17;53.75;;;21.88;;
24650;SDS011;12783;48.824;8.662;2024-01-11T14:20:45;54.85;;;22.58;;
24650;SDS011;12783;48.824;8.662;2024-01-11T14:23:12;54.22;;;21.90;;
24650;SDS011;12783;48.824;8.662;2024-01-11T14:25:39;57.40;;;23.17;;
24650;SDS011;12783;48.824;8.662;2024-01-11T14:28:07;57.50;;;23.13;;